createdAt,value
2023-04-15T00:02:00.983Z,3.23
2023-04-15T00:04:31.752Z,3.40
2023-04-15T00:07:00.443Z,3.60
2023-04-15T00:09:28.742Z,3.67
2023-04-15T00:11:57.784Z,3.60
2023-04-15T00:14:26.171Z,3.37
2023-04-15T00:16:56.267Z,3.47
2023-04-15T00:19:25.296Z,3.60
2023-04-15T00:21:54.898Z,3.30
2023-04-15T00:24:23.220Z,3.33
2023-04-15T00:26:51.566Z,3.77
2023-04-15T00:29:19.853Z,3.83
2023-04-15T00:31:48.196Z,3.90
2023-04-15T00:34:16.693Z,3.60
2023-04-15T00:36:44.949Z,3.70
2023-04-15T00:39:14.584Z,3.43
2023-04-15T00:41:42.875Z,3.60
2023-04-15T00:44:11.407Z,3.93
2023-04-15T00:46:40.624Z,3.87
2023-04-15T00:49:09.378Z,3.87
2023-04-15T00:51:37.606Z,3.80
2023-04-15T00:54:06.734Z,4.10
2023-04-15T00:56:39.062Z,3.90
2023-04-15T00:59:08.045Z,3.90
2023-04-15T01:01:36.975Z,4.07
2023-04-15T01:04:05.859Z,4.53
2023-04-15T01:06:34.307Z,4.50
2023-04-15T01:09:03.460Z,4.00
2023-04-15T01:11:33.152Z,4.80
2023-04-15T01:14:02.810Z,4.83
2023-04-15T01:16:31.109Z,4.37
2023-04-15T01:18:59.550Z,4.80
2023-04-15T01:21:28.242Z,4.23
2023-04-15T01:23:58.395Z,4.63
2023-04-15T01:26:28.327Z,4.40
2023-04-15T01:28:56.557Z,4.67
2023-04-15T01:31:24.837Z,4.70
2023-04-15T01:33:53.036Z,4.33
2023-04-15T01:36:21.233Z,4.57
2023-04-15T01:38:49.628Z,4.90
2023-04-15T01:41:20.039Z,4.50
2023-04-15T01:43:49.663Z,4.77
2023-04-15T01:46:17.908Z,4.70
2023-04-15T01:48:46.156Z,4.80
2023-04-15T01:51:14.422Z,4.40
2023-04-15T01:53:42.710Z,4.73
2023-04-15T01:56:11.013Z,5.20
2023-04-15T01:58:40.513Z,5.10
2023-04-15T02:01:11.801Z,5.63
2023-04-15T02:03:40.496Z,4.83
2023-04-15T02:06:08.737Z,5.37
2023-04-15T02:08:36.970Z,5.23
2023-04-15T02:11:06.492Z,5.00
2023-04-15T02:13:34.780Z,4.80
2023-04-15T02:16:03.084Z,4.90
2023-04-15T02:18:32.804Z,5.50
2023-04-15T02:21:01.022Z,4.93
2023-04-15T02:23:29.222Z,5.27
2023-04-15T02:25:57.432Z,5.67
2023-04-15T02:28:25.659Z,5.83
2023-04-15T02:30:56.160Z,5.13
2023-04-15T02:33:25.108Z,5.30
2023-04-15T02:35:54.747Z,5.40
2023-04-15T02:38:23.043Z,5.30
2023-04-15T02:40:51.447Z,5.17
2023-04-15T02:43:19.690Z,5.40
2023-04-15T02:45:48.475Z,5.70
2023-04-15T02:48:19.357Z,4.77
2023-04-15T02:50:47.975Z,5.23
2023-04-15T02:53:17.694Z,5.47
2023-04-15T02:55:46.113Z,5.77
2023-04-15T02:58:14.439Z,5.90
2023-04-15T03:00:42.674Z,4.97
2023-04-15T03:03:11.119Z,5.70
2023-04-15T03:05:40.034Z,4.93
2023-04-15T03:08:08.252Z,5.63
2023-04-15T03:10:37.933Z,5.30
2023-04-15T03:13:06.138Z,5.67
2023-04-15T03:15:34.659Z,5.27
2023-04-15T03:18:02.937Z,5.43
2023-04-15T03:20:31.602Z,5.13
2023-04-15T03:22:59.933Z,5.10
2023-04-15T03:25:28.173Z,5.40
2023-04-15T03:27:58.329Z,5.57
2023-04-15T03:30:26.592Z,5.10
2023-04-15T03:32:54.869Z,5.50
2023-04-15T03:35:23.217Z,5.03
2023-04-15T03:37:51.635Z,5.53
2023-04-15T03:40:19.915Z,5.47
2023-04-15T03:42:48.094Z,5.73
2023-04-15T03:45:17.824Z,5.97
2023-04-15T03:47:46.548Z,5.33
2023-04-15T03:50:14.830Z,5.67
2023-04-15T03:52:43.044Z,5.60
2023-04-15T03:55:11.409Z,5.70
2023-04-15T03:57:39.703Z,5.30
2023-04-15T04:00:09.217Z,5.80
2023-04-15T04:02:39.145Z,6.20
2023-04-15T04:05:08.177Z,6.07
2023-04-15T04:07:36.591Z,6.33
2023-04-15T04:10:04.897Z,6.50
2023-04-15T04:12:33.222Z,5.80
2023-04-15T04:15:01.746Z,6.07
2023-04-15T04:17:30.074Z,5.77
2023-04-15T04:19:59.711Z,6.23
2023-04-15T04:22:27.926Z,5.73
2023-04-15T04:24:56.604Z,5.80
2023-04-15T04:27:24.877Z,5.17
2023-04-15T04:29:53.070Z,6.13
2023-04-15T04:32:21.728Z,6.10
2023-04-15T04:34:50.090Z,6.37
2023-04-15T04:37:19.669Z,6.23
2023-04-15T04:39:47.904Z,5.80
2023-04-15T04:42:16.158Z,6.10
2023-04-15T04:44:44.446Z,6.40
2023-04-15T04:47:12.666Z,5.77
2023-04-15T04:49:41.130Z,5.87
2023-04-15T04:52:09.382Z,6.37
2023-04-15T04:54:39.002Z,5.90
2023-04-15T04:57:08.085Z,6.80
2023-04-15T04:59:36.529Z,6.30
2023-04-15T05:02:04.869Z,6.47
2023-04-15T05:04:33.205Z,6.23
2023-04-15T05:07:01.438Z,6.40
2023-04-15T05:09:32.155Z,7.00
2023-04-15T05:12:01.878Z,6.53
2023-04-15T05:14:30.152Z,7.00
2023-04-15T05:16:58.447Z,6.20
2023-04-15T05:19:26.732Z,6.97
2023-04-15T05:21:54.954Z,6.73
2023-04-15T05:24:23.420Z,6.40
2023-04-15T05:26:51.654Z,6.47
2023-04-15T05:29:21.499Z,7.30
2023-04-15T05:31:49.685Z,6.60
2023-04-15T05:34:18.012Z,6.87
2023-04-15T05:36:46.362Z,6.20
2023-04-15T05:39:14.587Z,7.30
2023-04-15T05:41:42.788Z,6.07
2023-04-15T05:44:11.012Z,6.63
2023-04-15T05:46:40.712Z,6.43
2023-04-15T05:49:09.234Z,6.67
2023-04-15T05:51:37.557Z,6.83
2023-04-15T05:54:05.799Z,6.47
2023-04-15T05:56:34.049Z,6.73
2023-04-15T05:59:02.497Z,7.10
2023-04-15T06:01:31.058Z,6.93
2023-04-15T06:04:00.752Z,6.70
2023-04-15T06:06:29.104Z,7.10
2023-04-15T06:08:57.381Z,7.20
2023-04-15T06:11:26.737Z,6.97
2023-04-15T06:13:55.057Z,6.60
2023-04-15T06:16:23.378Z,6.37
2023-04-15T06:18:51.724Z,6.93
2023-04-15T06:21:21.412Z,6.73
2023-04-15T06:23:49.653Z,6.70
2023-04-15T06:26:17.842Z,6.90
2023-04-15T06:28:46.256Z,7.20
2023-04-15T06:31:14.532Z,7.23
2023-04-15T06:33:42.736Z,6.53
2023-04-15T06:36:10.967Z,7.00
2023-04-15T06:38:40.811Z,7.17
2023-04-15T06:41:09.176Z,7.50
2023-04-15T06:43:37.435Z,7.30
2023-04-15T06:46:05.755Z,6.77
2023-04-15T06:48:34.031Z,7.60
2023-04-15T06:51:02.238Z,7.17
2023-04-15T06:53:30.503Z,6.67
2023-04-15T06:56:00.127Z,7.13
2023-04-15T06:58:28.352Z,7.40
2023-04-15T07:00:56.777Z,7.10
2023-04-15T07:03:25.056Z,7.03
2023-04-15T07:05:53.520Z,7.47
2023-04-15T07:08:21.851Z,7.20
2023-04-15T07:10:50.088Z,7.33
2023-04-15T07:13:19.661Z,7.47
2023-04-15T07:15:47.926Z,7.23
2023-04-15T07:18:16.392Z,7.40
2023-04-15T07:20:44.721Z,7.73
2023-04-15T07:23:12.949Z,6.80
2023-04-15T07:25:41.223Z,6.80
2023-04-15T07:28:09.454Z,7.07
2023-04-15T07:30:39.535Z,7.10
2023-04-15T07:33:07.979Z,6.67
2023-04-15T07:35:36.228Z,7.10
2023-04-15T07:38:04.431Z,7.27
2023-04-15T07:40:32.625Z,6.70
2023-04-15T07:43:00.885Z,6.83
2023-04-15T07:45:29.165Z,7.13
2023-04-15T07:47:58.886Z,6.47
2023-04-15T07:50:27.112Z,6.80
2023-04-15T07:52:55.949Z,6.13
2023-04-15T07:55:24.383Z,7.10
2023-04-15T07:57:53.294Z,6.73
2023-04-15T08:00:21.547Z,6.80
2023-04-15T08:02:50.047Z,7.17
2023-04-15T08:05:20.004Z,6.77
2023-04-15T08:07:48.250Z,7.53
2023-04-15T08:10:16.684Z,7.03
2023-04-15T08:12:48.981Z,7.03
2023-04-15T08:15:17.681Z,7.37
2023-04-15T08:17:46.518Z,7.60
2023-04-15T08:20:14.809Z,7.20
2023-04-15T08:22:44.457Z,7.20
2023-04-15T08:25:13.000Z,7.57
2023-04-15T08:27:41.238Z,7.83
2023-04-15T08:30:10.614Z,7.67
2023-04-15T08:32:39.032Z,7.40
2023-04-15T08:35:07.918Z,7.63
2023-04-15T08:37:36.178Z,7.57
2023-04-15T08:40:06.123Z,7.90
2023-04-15T08:42:37.810Z,7.40
2023-04-15T08:45:06.929Z,7.90
2023-04-15T08:47:35.679Z,7.57
2023-04-15T08:50:05.474Z,7.17
2023-04-15T08:52:33.916Z,7.07
2023-04-15T08:55:02.196Z,7.33
2023-04-15T08:57:32.180Z,6.80
2023-04-15T09:00:01.780Z,7.20
2023-04-15T09:02:31.463Z,6.60
2023-04-15T09:04:59.768Z,6.87
2023-04-15T09:07:28.100Z,7.07
2023-04-15T09:09:56.688Z,7.00
2023-04-15T09:12:24.955Z,6.80
2023-04-15T09:14:54.878Z,6.27
2023-04-15T09:17:24.656Z,6.77
2023-04-15T09:20:09.212Z,7.03
2023-04-15T09:22:38.440Z,7.17
2023-04-15T09:25:27.158Z,6.47
2023-04-15T09:27:56.453Z,6.50
2023-04-15T09:30:26.572Z,5.97
2023-04-15T09:32:55.898Z,6.27
2023-04-15T09:35:24.880Z,5.87
2023-04-15T09:37:53.261Z,6.10
2023-04-15T09:40:33.157Z,6.07
2023-04-15T09:43:02.777Z,6.20
2023-04-15T09:45:33.179Z,5.73
2023-04-15T09:48:02.051Z,5.73
2023-04-15T09:50:30.748Z,5.13
2023-04-15T09:52:59.606Z,5.33
2023-04-15T09:55:27.883Z,4.87
2023-04-15T09:57:56.097Z,5.40
2023-04-15T10:00:24.337Z,5.27
2023-04-15T10:02:54.047Z,5.17
2023-04-15T10:05:23.377Z,5.00
2023-04-15T10:07:51.816Z,4.83
2023-04-15T10:10:20.643Z,5.47
2023-04-15T10:12:48.901Z,4.70
2023-04-15T10:15:18.128Z,4.87
2023-04-15T10:17:46.764Z,4.40
2023-04-15T10:20:17.072Z,3.90
2023-04-15T10:22:45.747Z,2.90
2023-04-15T10:25:14.422Z,3.50
2023-04-15T10:27:43.127Z,3.10
2023-04-15T10:30:11.516Z,3.10
2023-04-15T10:32:40.183Z,4.20
2023-04-15T10:35:09.517Z,2.87
2023-04-15T10:37:39.985Z,3.40
2023-04-15T10:40:27.343Z,2.37
2023-04-15T10:42:56.460Z,2.10
2023-04-15T10:45:27.258Z,2.20
2023-04-15T10:47:57.240Z,2.27
2023-04-15T10:50:27.791Z,2.33
2023-04-15T10:52:57.610Z,2.60
2023-04-15T10:55:26.627Z,3.00
2023-04-15T10:57:56.017Z,2.80
2023-04-15T11:00:27.111Z,2.47
2023-04-15T11:02:57.150Z,2.67
2023-04-15T11:05:45.785Z,2.87
2023-04-15T11:08:16.265Z,2.90
2023-04-15T11:10:54.848Z,2.87
2023-04-15T11:13:29.235Z,2.53
2023-04-15T11:15:59.283Z,2.53
2023-04-15T11:18:28.497Z,3.07
2023-04-15T11:20:59.270Z,2.97
2023-04-15T11:23:33.247Z,2.40
2023-04-15T11:26:02.420Z,2.23
2023-04-15T11:28:31.481Z,2.17
2023-04-15T11:31:00.015Z,2.13
2023-04-15T11:33:28.407Z,2.13
2023-04-15T11:35:56.720Z,2.50
2023-04-15T11:38:24.953Z,2.87
2023-04-15T11:40:54.629Z,3.17
2023-04-15T11:43:23.862Z,3.30
2023-04-15T11:45:53.375Z,3.00
2023-04-15T11:48:22.639Z,2.87
2023-04-15T11:50:55.104Z,2.87
2023-04-15T11:53:23.455Z,3.33
2023-04-15T11:55:52.662Z,2.67
2023-04-15T11:58:23.436Z,3.10
2023-04-15T12:00:53.397Z,3.40
2023-04-15T12:03:23.724Z,3.27
2023-04-15T12:06:08.439Z,3.30
2023-04-15T12:09:00.019Z,3.77
2023-04-15T12:11:35.524Z,3.50
2023-04-15T12:14:12.628Z,3.40
2023-04-15T12:16:49.037Z,3.07
2023-04-15T12:19:20.039Z,3.60
2023-04-15T12:21:49.650Z,3.37
2023-04-15T12:24:21.453Z,3.27
2023-04-15T12:26:50.478Z,2.90
2023-04-15T12:29:20.201Z,3.20
2023-04-15T12:31:49.880Z,3.20
2023-04-15T12:34:18.085Z,3.10
2023-04-15T12:36:46.292Z,3.63
2023-04-15T12:39:14.930Z,3.30
2023-04-15T12:41:43.185Z,3.53
2023-04-15T12:44:11.371Z,3.17
2023-04-15T12:46:41.509Z,3.37
2023-04-15T12:49:10.318Z,3.10
2023-04-15T12:51:38.555Z,2.97
2023-04-15T12:54:06.924Z,3.13
2023-04-15T12:56:35.322Z,2.53
2023-04-15T12:59:03.590Z,3.10
2023-04-15T13:01:31.870Z,2.73
2023-04-15T13:04:01.585Z,2.63
2023-04-15T13:06:30.554Z,2.80
2023-04-15T13:08:59.198Z,2.23
2023-04-15T13:11:27.535Z,2.27
2023-04-15T13:13:56.008Z,2.10
2023-04-15T13:16:24.665Z,2.10
2023-04-15T13:18:52.934Z,2.33
2023-04-15T13:21:22.575Z,2.33
2023-04-15T13:23:51.037Z,2.40
2023-04-15T13:26:19.398Z,2.10
2023-04-15T13:28:47.771Z,2.30
2023-04-15T13:31:16.114Z,2.13
2023-04-15T13:33:44.408Z,2.27
2023-04-15T13:36:12.692Z,2.30
2023-04-15T13:38:42.320Z,2.97
2023-04-15T13:41:10.587Z,2.70
2023-04-15T13:43:38.877Z,2.23
2023-04-15T13:46:07.243Z,2.30
2023-04-15T13:48:35.620Z,3.03
2023-04-15T13:51:03.895Z,2.77
2023-04-15T13:53:38.474Z,2.77
2023-04-15T13:56:09.628Z,2.73
2023-04-15T13:58:38.269Z,2.50
2023-04-15T14:01:07.551Z,3.00
2023-04-15T14:03:36.999Z,2.17
2023-04-15T14:06:06.174Z,2.50
2023-04-15T14:08:34.807Z,2.20
2023-04-15T14:11:03.277Z,2.33
2023-04-15T14:13:33.043Z,2.50
2023-04-15T14:16:01.350Z,1.90
2023-04-15T14:18:29.885Z,2.17
2023-04-15T14:20:58.315Z,1.90
2023-04-15T14:23:26.516Z,1.93
2023-04-15T14:25:55.058Z,2.00
2023-04-15T14:28:23.280Z,1.90
2023-04-15T14:30:53.424Z,1.80
2023-04-15T14:33:21.699Z,2.00
2023-04-15T14:35:51.233Z,1.93
2023-04-15T14:38:19.516Z,2.47
2023-04-15T14:40:47.752Z,2.47
2023-04-15T14:43:16.037Z,2.60
2023-04-15T14:45:45.433Z,2.50
2023-04-15T14:48:15.409Z,2.70
2023-04-15T14:50:43.713Z,2.27
2023-04-15T14:53:11.985Z,2.40
2023-04-15T14:55:40.288Z,2.60
2023-04-15T14:58:09.363Z,2.37
2023-04-15T15:00:39.304Z,2.93
2023-04-15T15:03:12.813Z,2.03
2023-04-15T15:05:43.038Z,2.17
2023-04-15T15:08:11.552Z,2.23
2023-04-15T15:10:49.458Z,1.83
2023-04-15T15:13:19.068Z,2.13
2023-04-15T15:15:49.299Z,2.20
2023-04-15T15:18:18.716Z,1.80
2023-04-15T15:20:49.396Z,1.90
2023-04-15T15:23:17.594Z,2.23
2023-04-15T15:25:45.973Z,2.30
2023-04-15T15:28:14.202Z,2.07
2023-04-15T15:30:42.378Z,2.20
2023-04-15T15:33:10.829Z,2.33
2023-04-15T15:35:39.101Z,2.50
2023-04-15T15:38:08.757Z,2.00
2023-04-15T15:40:37.017Z,2.30
2023-04-15T15:43:05.775Z,2.20
2023-04-15T15:45:34.301Z,2.07
2023-04-15T15:48:02.839Z,2.27
2023-04-15T15:50:31.109Z,2.13
2023-04-15T15:52:59.543Z,2.10
2023-04-15T15:55:29.207Z,2.30
2023-04-15T15:57:57.407Z,2.43
2023-04-15T16:00:25.812Z,2.57
2023-04-15T16:03:06.812Z,2.00
2023-04-15T16:05:36.130Z,1.90
2023-04-15T16:08:04.333Z,2.50
2023-04-15T16:10:33.961Z,1.90
2023-04-15T16:13:02.643Z,2.10
2023-04-15T16:15:31.227Z,1.63
2023-04-15T16:17:59.539Z,2.00
2023-04-15T16:20:28.369Z,2.07
2023-04-15T16:22:58.217Z,2.20
2023-04-15T16:25:26.527Z,1.90
2023-04-15T16:28:05.605Z,2.10
2023-04-15T16:30:41.224Z,2.33
2023-04-15T16:33:10.011Z,2.20
2023-04-15T16:35:38.239Z,1.97
2023-04-15T16:38:06.534Z,2.37
2023-04-15T16:40:34.925Z,2.47
2023-04-15T16:43:04.509Z,2.40
2023-04-15T16:45:32.770Z,2.30
2023-04-15T16:48:01.082Z,2.10
2023-04-15T16:50:29.507Z,1.70
2023-04-15T16:52:57.771Z,1.80
2023-04-15T16:55:26.050Z,2.20
2023-04-15T16:58:02.772Z,2.37
2023-04-15T17:00:35.941Z,2.07
2023-04-15T17:03:04.823Z,2.00
2023-04-15T17:05:33.198Z,2.13
2023-04-15T17:08:01.461Z,2.00
2023-04-15T17:10:29.721Z,1.47
2023-04-15T17:12:58.417Z,2.00
2023-04-15T17:15:27.262Z,1.53
2023-04-15T17:17:57.078Z,2.07
2023-04-15T17:20:26.495Z,1.70
2023-04-15T17:22:54.779Z,1.80
2023-04-15T17:25:23.000Z,1.77
2023-04-15T17:27:51.214Z,1.50
2023-04-15T17:30:19.539Z,1.93
2023-04-15T17:32:47.826Z,1.40
2023-04-15T17:35:17.455Z,1.33
2023-04-15T17:37:45.704Z,1.50
2023-04-15T17:40:14.801Z,1.50
2023-04-15T17:42:43.046Z,1.63
2023-04-15T17:45:11.722Z,1.90
2023-04-15T17:47:39.962Z,1.73
2023-04-15T17:50:08.947Z,1.60
2023-04-15T17:52:38.514Z,1.57
2023-04-15T17:55:07.285Z,1.30
2023-04-15T17:57:36.189Z,1.50
2023-04-15T18:00:04.502Z,1.50
2023-04-15T18:02:34.579Z,1.63
2023-04-15T18:05:05.326Z,1.30
2023-04-15T18:07:33.631Z,1.70
2023-04-15T18:10:03.294Z,1.40
2023-04-15T18:12:31.489Z,1.50
2023-04-15T18:14:59.844Z,1.70
2023-04-15T18:17:28.134Z,1.83
2023-04-15T18:19:56.393Z,1.50
2023-04-15T18:22:24.658Z,1.70
2023-04-15T18:24:54.495Z,1.13
2023-04-15T18:27:24.071Z,1.30
2023-04-15T18:29:52.801Z,1.70
2023-04-15T18:32:21.075Z,1.60
2023-04-15T18:34:49.395Z,1.50
2023-04-15T18:37:17.612Z,1.30
2023-04-15T18:39:45.834Z,1.70
2023-04-15T18:42:14.076Z,1.57
2023-04-15T18:44:43.651Z,2.00
2023-04-15T18:47:12.009Z,1.40
2023-04-15T18:49:41.515Z,1.30
2023-04-15T18:52:09.933Z,1.30
2023-04-15T18:54:38.664Z,1.30
2023-04-15T18:57:07.823Z,1.30
2023-04-15T18:59:36.299Z,1.27
2023-04-15T19:02:07.683Z,1.40
2023-04-15T19:04:36.110Z,1.50
2023-04-15T19:07:04.614Z,1.50
2023-04-15T19:09:32.883Z,1.57
2023-04-15T19:12:01.725Z,1.60
2023-04-15T19:14:29.995Z,1.50
2023-04-15T19:16:58.410Z,1.57
2023-04-15T19:19:29.368Z,1.57
2023-04-15T19:21:57.942Z,1.37
2023-04-15T19:24:26.185Z,1.60
2023-04-15T19:26:54.434Z,1.47
2023-04-15T19:29:22.911Z,1.73
2023-04-15T19:31:51.105Z,1.50
2023-04-15T19:34:19.492Z,1.30
2023-04-15T19:36:49.140Z,1.30
2023-04-15T19:39:17.380Z,1.43
2023-04-15T19:41:45.855Z,1.40
2023-04-15T19:44:14.078Z,1.50
2023-04-15T19:46:44.672Z,1.40
2023-04-15T19:49:12.970Z,1.80
2023-04-15T19:51:43.055Z,1.40
2023-04-15T19:54:12.675Z,2.03
2023-04-15T19:56:40.933Z,1.70
2023-04-15T19:59:09.208Z,1.77
2023-04-15T20:01:37.478Z,1.23
2023-04-15T20:04:05.921Z,1.30
2023-04-15T20:06:34.245Z,1.50
2023-04-15T20:09:02.721Z,1.20
2023-04-15T20:12:09.284Z,1.20
2023-04-15T20:14:20.655Z,1.27
2023-04-15T20:16:48.868Z,1.10
2023-04-15T20:19:17.160Z,1.40
2023-04-15T20:21:45.481Z,1.00
2023-04-15T20:24:13.741Z,1.63
2023-04-15T20:26:43.323Z,1.47
2023-04-15T20:29:11.551Z,1.53
2023-04-15T20:31:39.889Z,1.50
2023-04-15T20:34:10.648Z,1.83
2023-04-15T20:36:40.174Z,1.80
2023-04-15T20:39:08.479Z,1.23
2023-04-15T20:41:36.794Z,1.40
2023-04-15T20:44:06.432Z,1.60
2023-04-15T20:46:34.789Z,1.63
2023-04-15T20:49:03.095Z,1.60
2023-04-15T20:51:37.209Z,1.37
2023-04-15T20:54:05.513Z,1.27
2023-04-15T20:56:33.772Z,1.37
2023-04-15T20:59:02.308Z,1.00
2023-04-15T21:01:31.960Z,1.40
2023-04-15T21:04:00.630Z,1.00
2023-04-15T21:06:28.889Z,1.03
2023-04-15T21:08:57.136Z,1.27
2023-04-15T21:11:40.972Z,1.17
2023-04-15T21:14:13.655Z,2.07
2023-04-15T21:16:43.491Z,1.10
2023-04-15T21:19:11.900Z,1.10
2023-04-15T21:21:40.141Z,1.00
2023-04-15T21:24:08.620Z,1.00
2023-04-15T21:26:36.997Z,1.13
2023-04-15T21:29:06.606Z,1.00
2023-04-15T21:31:36.207Z,0.97
2023-04-15T21:34:05.888Z,1.00
2023-04-15T21:36:34.224Z,1.10
2023-04-15T21:39:02.555Z,1.10
2023-04-15T21:41:31.118Z,1.23
2023-04-15T21:43:59.450Z,1.30
2023-04-15T21:46:32.876Z,0.97
2023-04-15T21:49:03.593Z,1.30
2023-04-15T21:51:33.274Z,1.40
2023-04-15T21:54:01.574Z,1.53
2023-04-15T21:56:29.839Z,1.10
2023-04-15T21:58:58.817Z,1.30
2023-04-15T22:01:27.587Z,1.20
2023-04-15T22:03:56.030Z,1.30
2023-04-15T22:06:24.368Z,1.60
2023-04-15T22:08:57.494Z,1.10
2023-04-15T22:11:28.151Z,1.20
2023-04-15T22:13:56.969Z,1.30
2023-04-15T22:16:25.360Z,1.70
2023-04-15T22:18:53.700Z,1.07
2023-04-15T22:21:21.968Z,1.10
2023-04-15T22:23:50.414Z,0.80
2023-04-15T22:26:20.310Z,1.10
2023-04-15T22:28:48.528Z,1.43
2023-04-15T22:31:16.785Z,1.30
2023-04-15T22:33:45.079Z,1.00
2023-04-15T22:36:13.628Z,1.30
2023-04-15T22:38:42.029Z,1.20
2023-04-15T22:41:10.988Z,1.23
2023-04-15T22:43:40.560Z,0.93
2023-04-15T22:46:08.835Z,1.30
2023-04-15T22:48:37.046Z,1.00
2023-04-15T22:51:06.163Z,1.30
2023-04-15T22:53:34.410Z,1.30
2023-04-15T22:56:02.668Z,0.90
2023-04-15T22:58:32.666Z,1.40
2023-04-15T23:01:02.290Z,0.90
2023-04-15T23:03:30.735Z,1.10
2023-04-15T23:05:59.067Z,1.20
2023-04-15T23:08:27.326Z,1.20
2023-04-15T23:10:55.581Z,1.20
2023-04-15T23:13:23.850Z,1.13
2023-04-15T23:15:52.153Z,1.20
2023-04-15T23:18:21.945Z,1.43
2023-04-15T23:20:50.261Z,2.03
2023-04-15T23:23:18.450Z,1.50
2023-04-15T23:25:46.668Z,1.53
2023-04-15T23:28:14.936Z,1.63
2023-04-15T23:30:43.205Z,1.60
2023-04-15T23:33:11.957Z,1.90
2023-04-15T23:35:42.984Z,2.20
2023-04-15T23:38:11.191Z,1.77
2023-04-15T23:40:39.437Z,2.30
2023-04-15T23:43:07.638Z,2.00
2023-04-15T23:45:35.856Z,2.27
2023-04-15T23:48:04.083Z,2.20
2023-04-15T23:50:32.453Z,2.27
2023-04-15T23:53:02.312Z,2.30
2023-04-15T23:55:31.481Z,2.53
2023-04-15T23:57:59.738Z,2.13
